Main page
METAR-TAF:

METAR-TAF

Airports :

Flughafen Lahr

Lahr, Germany

latitude: 48-22-09N, longitude: 007-49-40E, elevation: 156 m

Current weather observation

The report was made 20 minutes ago, at 13:20 UTC
Wind 6 kt from the North/Northeast, varying between North/Northwest and East/Northeast
Temperature 22°C
Humidity 65%
Pressure 1018 hPa
Visibility 10 km or more
no clouds below 1500 m and no cumulonimbus

METAR: EDTL 231320Z 02006KT 330V060 CAVOK 22/15 Q1018

Time: 15:40 (13:40 UTC)

Forecast

The report was made 2 hours and 40 minutes ago, at 11:00 UTC
Forecast valid from 23 at 12 UTC to 23 at 21 UTC
Wind 9 kt from the North/Northeast
Visibility 10 km or more
Scattered clouds at a height of 3500 ft
Becoming
from 23 at 19 UTC to 23 at 21 UTC
Wind 4 kt from the North/Northeast

TAF: EDTL 231100Z 2312/2321 02009KT 9999 SCT035 BECMG 2319/2321 02004KT

Weather observations and forecasts of more than 4000 airports (METAR and TAF reports).

The available stations are represented by yellow and red dots on the map.

Hover mouse over dot to see the name of the station.

Then click to see weather observations and forecasts.

To change the map : click on the green buttons with a black cross to zoom in, on the green button with a dash to zoom out, or on the green arrows for adjacent maps.


METAR-TAF: